Hlavní strana
METAR-TAF:

METAR-TAF

Letiště :

Røst, Norsko

zeměpisná šířka: 67-31N, zeměpisná délka: 012-06E, výška: 4 m

Aktuální stav počasí

Zpráva byla vytvořena před 1 hodinou a 9 minutami, v 09:20 UTC
Severozápadní vítr 15 kt
Teplota 5°C
Vlhkost vzduchu 81%
Tlak 1003 hPa
Viditelnost 10 km a více
Polojasno ve výšce 1900 ft
Polojasno ve výšce 4000 ft
slabé dešťové přeháňky

METAR: ENRS 230920Z 31015KT 9999 -SHRA SCT019 SCT040 05/02 Q1003

Čas: 12:29 (10:29 UTC)


TAF: chybějící

Stav a předpovědi počasí z více než 4 000 letišť (zprávy METAR a TAF).

Červené a žluté tečky na mapě představují dostupné meteorologické stanice.

Když kurzor umístíte na tečku, zobrazí se název stanice.

Pak kliknutím zobrazíte stav a předpověď počasí.

Chcete-li změnit mapu, kliknutím na zelené tlačítko se znaménkem +mapu přiblížíte, kliknutím na zelené tlačítko se znaménkem – mapu oddálíte a kliknutím na zelené šipky přejdete na sousední mapy.


METAR-TAF: